UAL1946 KORD-KDAY
Flight info
| Callsign | UAL1946 |
|---|---|
| Flight time | N/A |
| Altitude | 24000 |
| Route | MOBLE ADIME OTENS ANEWA TAMDE GRIVY JESEY5 |
| Aircraft | A320/M-SDE3FGHIRWY/LB1 |
Departure
| Time | N/A |
|---|---|
| Airport | Chicago O'Hare International Airport (KORD) |
Arrival
| Time | 2026-04-23 02:39 |
|---|---|
| Airport | James M. Cox Dayton International Airport (KDAY) |
| Time | Latitude | Longitude | Altitude | Speed | Heading |
|---|---|---|---|---|---|
| 2026-04-23 02:12 | 40.49341 | -82.29473 | 35044 ft | 496 kts | 218° |
| 2026-04-23 02:12 | 40.46452 | -82.31962 | 35047 ft | 496 kts | 218° |
| 2026-04-23 02:13 | 40.43571 | -82.34419 | 34574 ft | 493 kts | 218° |
| 2026-04-23 02:13 | 40.40692 | -82.36883 | 33533 ft | 494 kts | 218° |
| 2026-04-23 02:13 | 40.37816 | -82.39368 | 32396 ft | 496 kts | 218° |
| 2026-04-23 02:13 | 40.34936 | -82.41870 | 31417 ft | 496 kts | 218° |
| 2026-04-23 02:14 | 40.32051 | -82.44370 | 31116 ft | 499 kts | 218° |
| 2026-04-23 02:14 | 40.29146 | -82.46877 | 30878 ft | 501 kts | 217° |
| 2026-04-23 02:14 | 40.26224 | -82.49377 | 30643 ft | 500 kts | 217° |
| 2026-04-23 02:14 | 40.24299 | -82.51020 | 30490 ft | 497 kts | 218° |
| 2026-04-23 02:15 | 40.19385 | -82.57131 | 29989 ft | 482 kts | 239° |
| 2026-04-23 02:15 | 40.17686 | -82.60869 | 29703 ft | 475 kts | 249° |
| 2026-04-23 02:15 | 40.16536 | -82.64890 | 29345 ft | 470 kts | 258° |
| 2026-04-23 02:16 | 40.15894 | -82.69055 | 28106 ft | 465 kts | 268° |
| 2026-04-23 02:16 | 40.15839 | -82.73236 | 26820 ft | 459 kts | 277° |
| 2026-04-23 02:16 | 40.16093 | -82.77421 | 25621 ft | 465 kts | 277° |
| 2026-04-23 02:16 | 40.16338 | -82.81658 | 24451 ft | 470 kts | 277° |
| 2026-04-23 02:17 | 40.16565 | -82.85895 | 23252 ft | 462 kts | 276° |
| 2026-04-23 02:17 | 40.16770 | -82.90055 | 22082 ft | 455 kts | 276° |
| 2026-04-23 02:17 | 40.16966 | -82.94160 | 21185 ft | 452 kts | 276° |
| 2026-04-23 02:17 | 40.17163 | -82.98239 | 20235 ft | 446 kts | 276° |
| 2026-04-23 02:18 | 40.17359 | -83.02255 | 19324 ft | 440 kts | 275° |
| 2026-04-23 02:18 | 40.17554 | -83.06230 | 18421 ft | 435 kts | 275° |
| 2026-04-23 02:18 | 40.17746 | -83.10161 | 17430 ft | 430 kts | 275° |
| 2026-04-23 02:18 | 40.17935 | -83.14028 | 16539 ft | 423 kts | 275° |
| 2026-04-23 02:19 | 40.18122 | -83.17843 | 15562 ft | 419 kts | 275° |
| 2026-04-23 02:19 | 40.18305 | -83.21619 | 14717 ft | 414 kts | 275° |
| 2026-04-23 02:19 | 40.18482 | -83.25337 | 14223 ft | 405 kts | 275° |
| 2026-04-23 02:19 | 40.18654 | -83.28988 | 14034 ft | 403 kts | 275° |
| 2026-04-23 02:20 | 40.18830 | -83.32654 | 13993 ft | 405 kts | 275° |
| 2026-04-23 02:20 | 40.19005 | -83.36333 | 13998 ft | 405 kts | 275° |
| 2026-04-23 02:20 | 40.19179 | -83.40009 | 14000 ft | 405 kts | 275° |
| 2026-04-23 02:20 | 40.19351 | -83.43677 | 14002 ft | 405 kts | 275° |
| 2026-04-23 02:21 | 40.19518 | -83.47297 | 13994 ft | 386 kts | 275° |
| 2026-04-23 02:21 | 40.19673 | -83.50677 | 13918 ft | 358 kts | 275° |
| 2026-04-23 02:21 | 40.19812 | -83.53797 | 13739 ft | 332 kts | 275° |
| 2026-04-23 02:21 | 40.19940 | -83.56743 | 13604 ft | 317 kts | 275° |
| 2026-04-23 02:22 | 40.20060 | -83.59518 | 13330 ft | 302 kts | 275° |
| 2026-04-23 02:22 | 40.20111 | -83.62234 | 12713 ft | 297 kts | 268° |
| 2026-04-23 02:22 | 40.19796 | -83.64881 | 12080 ft | 294 kts | 257° |
| 2026-04-23 02:22 | 40.19098 | -83.67386 | 11445 ft | 292 kts | 248° |
| 2026-04-23 02:23 | 40.18274 | -83.69796 | 10815 ft | 288 kts | 248° |
| 2026-04-23 02:23 | 40.17466 | -83.72178 | 10233 ft | 284 kts | 249° |
| 2026-04-23 02:23 | 40.16680 | -83.74502 | 10046 ft | 279 kts | 249° |
| 2026-04-23 02:23 | 40.15897 | -83.76820 | 10003 ft | 279 kts | 249° |
| 2026-04-23 02:24 | 40.15110 | -83.79145 | 10006 ft | 280 kts | 249° |
| 2026-04-23 02:24 | 40.14320 | -83.81469 | 10009 ft | 280 kts | 248° |
| 2026-04-23 02:24 | 40.13527 | -83.83794 | 10005 ft | 280 kts | 248° |
| 2026-04-23 02:24 | 40.12732 | -83.86119 | 10006 ft | 280 kts | 248° |
| 2026-04-23 02:25 | 40.11939 | -83.88445 | 10001 ft | 280 kts | 248° |
| 2026-04-23 02:25 | 40.11146 | -83.90771 | 10000 ft | 280 kts | 248° |
| 2026-04-23 02:25 | 40.10353 | -83.93099 | 9998 ft | 281 kts | 248° |
| 2026-04-23 02:25 | 40.09557 | -83.95428 | 9993 ft | 281 kts | 248° |
| 2026-04-23 02:26 | 40.08761 | -83.97757 | 9992 ft | 281 kts | 248° |
| 2026-04-23 02:26 | 40.07965 | -84.00087 | 9996 ft | 281 kts | 248° |
| 2026-04-23 02:26 | 40.07168 | -84.02417 | 9996 ft | 281 kts | 248° |
| 2026-04-23 02:26 | 40.06371 | -84.04746 | 9997 ft | 281 kts | 248° |
| 2026-04-23 02:27 | 40.05570 | -84.07080 | 10001 ft | 281 kts | 248° |
| 2026-04-23 02:27 | 40.04769 | -84.09414 | 10001 ft | 282 kts | 248° |
| 2026-04-23 02:27 | 40.03969 | -84.11745 | 9997 ft | 282 kts | 248° |
| 2026-04-23 02:27 | 40.03171 | -84.14070 | 9461 ft | 280 kts | 248° |
| 2026-04-23 02:28 | 40.02374 | -84.16382 | 8752 ft | 279 kts | 248° |
| 2026-04-23 02:28 | 40.01581 | -84.18673 | 8111 ft | 275 kts | 248° |
| 2026-04-23 02:28 | 40.00798 | -84.20939 | 7487 ft | 272 kts | 248° |
| 2026-04-23 02:28 | 40.00027 | -84.23175 | 6895 ft | 269 kts | 247° |
| 2026-04-23 02:29 | 39.99262 | -84.25388 | 6282 ft | 266 kts | 247° |
| 2026-04-23 02:29 | 39.98513 | -84.27547 | 6042 ft | 259 kts | 247° |
| 2026-04-23 02:29 | 39.97770 | -84.29691 | 6005 ft | 260 kts | 247° |
| 2026-04-23 02:29 | 39.97024 | -84.31846 | 6008 ft | 261 kts | 247° |
| 2026-04-23 02:30 | 39.96276 | -84.34009 | 6008 ft | 262 kts | 247° |
| 2026-04-23 02:30 | 39.95532 | -84.36165 | 6007 ft | 261 kts | 247° |
| 2026-04-23 02:30 | 39.94786 | -84.38326 | 6005 ft | 261 kts | 247° |
| 2026-04-23 02:30 | 39.94037 | -84.40486 | 5712 ft | 262 kts | 246° |
| 2026-04-23 02:31 | 39.93289 | -84.42637 | 5487 ft | 258 kts | 246° |
| 2026-04-23 02:31 | 39.92548 | -84.44767 | 5368 ft | 258 kts | 246° |
| 2026-04-23 02:31 | 39.91810 | -84.46889 | 5218 ft | 256 kts | 246° |
| 2026-04-23 02:31 | 39.91074 | -84.49000 | 4897 ft | 255 kts | 246° |
| 2026-04-23 02:32 | 39.90345 | -84.51097 | 4562 ft | 254 kts | 246° |
| 2026-04-23 02:32 | 39.89616 | -84.53187 | 4223 ft | 253 kts | 246° |
| 2026-04-23 02:32 | 39.88857 | -84.55254 | 3867 ft | 253 kts | 239° |
| 2026-04-23 02:32 | 39.87593 | -84.56834 | 3529 ft | 256 kts | 210° |
| 2026-04-23 02:33 | 39.85865 | -84.57400 | 3183 ft | 262 kts | 181° |
| 2026-04-23 02:33 | 39.84110 | -84.56788 | 2837 ft | 266 kts | 152° |
| 2026-04-23 02:33 | 39.82694 | -84.55230 | 2535 ft | 266 kts | 135° |
| 2026-04-23 02:33 | 39.81431 | -84.53472 | 2483 ft | 267 kts | 134° |
| 2026-04-23 02:34 | 39.80175 | -84.51686 | 2484 ft | 268 kts | 134° |
| 2026-04-23 02:34 | 39.78923 | -84.49900 | 2487 ft | 268 kts | 134° |
| 2026-04-23 02:34 | 39.77781 | -84.47987 | 2487 ft | 269 kts | 117° |
| 2026-04-23 02:34 | 39.77366 | -84.45631 | 2491 ft | 271 kts | 88° |
| 2026-04-23 02:35 | 39.77858 | -84.43293 | 2491 ft | 270 kts | 59° |
| 2026-04-23 02:35 | 39.79162 | -84.41598 | 2501 ft | 267 kts | 27° |
| 2026-04-23 02:35 | 39.80800 | -84.40451 | 2497 ft | 269 kts | 35° |
| 2026-04-23 02:35 | 39.82066 | -84.38675 | 2501 ft | 267 kts | 55° |
| 2026-04-23 02:36 | 39.83062 | -84.36717 | 2501 ft | 252 kts | 56° |
| 2026-04-23 02:36 | 39.84015 | -84.34891 | 2505 ft | 234 kts | 54° |
| 2026-04-23 02:36 | 39.84882 | -84.33267 | 2494 ft | 212 kts | 54° |
| 2026-04-23 02:36 | 39.85709 | -84.31723 | 2352 ft | 197 kts | 54° |
| 2026-04-23 02:37 | 39.86455 | -84.30328 | 2103 ft | 185 kts | 55° |
| 2026-04-23 02:37 | 39.87158 | -84.29011 | 1865 ft | 169 kts | 56° |
| 2026-04-23 02:37 | 39.87787 | -84.27835 | 1656 ft | 149 kts | 56° |
| 2026-04-23 02:37 | 39.88361 | -84.26760 | 1452 ft | 141 kts | 57° |
| 2026-04-23 02:38 | 39.88914 | -84.25722 | 1259 ft | 139 kts | 57° |
| 2026-04-23 02:38 | 39.89465 | -84.24694 | 1077 ft | 138 kts | 57° |
| 2026-04-23 02:38 | 39.89984 | -84.23714 | 1009 ft | 112 kts | 55° |
| 2026-04-23 02:38 | 39.90348 | -84.23032 | 1004 ft | 75 kts | 55° |
| 2026-04-23 02:39 | 39.90528 | -84.22688 | 1009 ft | 27 kts | 54° |
| 2026-04-23 02:39 | 39.90623 | -84.22515 | 1011 ft | 21 kts | 56° |
| 2026-04-23 02:39 | 39.90627 | -84.22377 | 1010 ft | 16 kts | 134° |
| 2026-04-23 02:39 | 39.90573 | -84.22332 | 1009 ft | 7 kts | 135° |
| 2026-04-23 02:40 | 39.90519 | -84.22276 | 1008 ft | 12 kts | 145° |
| 2026-04-23 02:40 | 39.90441 | -84.22200 | 1008 ft | 16 kts | 144° |
| 2026-04-23 02:40 | 39.90338 | -84.22110 | 1007 ft | 19 kts | 144° |
| 2026-04-23 02:40 | 39.90233 | -84.22016 | 1010 ft | 18 kts | 148° |
| 2026-04-23 02:41 | 39.90136 | -84.21963 | 1012 ft | 11 kts | 177° |
| 2026-04-23 02:41 | 39.90110 | -84.21963 | 1013 ft | 0 kts | 181° |
| 2026-04-23 03:02 | 39.90110 | -84.21962 | 1014 ft | 0 kts | 180° |
| 2026-04-23 03:03 | 39.90109 | -84.21962 | 1013 ft | 0 kts | 180° |